Alpharetta, GA

11:04 PM EST on February 26, 2015 (GMT -0500)
The Preserve At North Valley | Change Station
CLOSE
Current Station
Personal Weather Station
Location: Milton, GA
Elevation: 1030 ft
Nearby Weather Stations

Elev 1030 ft 34.15 °N, 84.31 °W | Updated 9 minutes ago

Clear
Clear
29.3 °F
Feels Like 29 °F
N
0.0
Wind Variable Wind from WSW

Today
High -- | Low -- °F
--% Chance of Precip.
Yesterday
High -- | Low -- °F
Precip. -- in
7:09 AM 6:30 PM
Waxing Gibbous, 65% visible
Pressure 30.15 in
Visibility 10.0 miles
Clouds Clear
Windchill 29 °F
Dew Point 29 °F
Humidity 99%
Rainfall 0.76 in
Snow Depth Not available.
UV 0 out of 12
Pollen 4.10 out of 12
Air Quality Not available.
Flu Activity Not available.
METAR KCNI 270355Z AUTO 00000KT 10SM CLR 00/M03 A3015 RMK AO2

More Conditions Fewer Conditions

Pressure 30.15 in
Visibility 10.0 miles
Clouds Clear
Windchill 29 °F
Dew Point 29 °F
Humidity 99%
Rainfall 0.76 in
Snow Depth Not available.
UV 0 out of 12
Pollen 4.10 out of 12
Air Quality Not available.
Flu Activity Not available.
METAR KCNI 270355Z AUTO 00000KT 10SM CLR 00/M03 A3015 RMK AO2

More Conditions Fewer Conditions

10-Day Weather Forecast

Almanac

Astronomy

Feb. 26, 2015 Rise Set
Actual Time
Civil Twilight
Nautical Twilight
Astronomical Twilight
Moon
Length of Visible Light
Length of Day
Tomorrow will be .
, % of the Moon is Illuminated

Today's Extremes

State Highs State Lows

Community

WunderPhotos

Upload Photos

1,800,609 photos uploaded!

WunderBlogs® & News

Nearby

Air Quality

  Air Quality AQ Index Pollutant
Not available.

Snow Depth

Station Depth Elevation

Earthquake Activity

City Distance Mag. Time & Date
Minimum magnitude displayed is 2.5.

Coastal Water Temperatures

Place Temperature

Nearby Weather Stations